Terminal Aerodrome Forecast
Issued by NWS Twin Cities, MN

Home | Current Version | Previous Version | Text Only | Print | Product List | Glossary Off
Versions: 1 2 3 4 5 6 7 8 9 10 11 12 13 14 15 16 17 18 19 20

000
FTUS43 KMPX 042320
TAFSTC
TAF
KSTC 042320Z 0500/0524 18007KT 6SM HZ FEW040
      TEMPO 0500/0501 5SM HZ
     FM051300 18010KT P6SM FEW250
     FM051600 18014G21KT P6SM SCT250=

USA.gov is the U.S. government's official web portal to all federal, state and local government web resources and services.